• Join FlightAware (Why Join?)
  • Login
  • US Flag 
10:41AM EDT


 

Airport Tracker/Info


-or-


 

Live Flight TrackerFlight Track Log ✈ FFT917 ✈ 17-Jul-2013 ✈ KTTN - KMCO

Flight Track Log - Related Links

Times and Time Zones

All times are in EDT time to prevent confusion due to time zone crossing. See the FFT917 flight status page for this flight to view local times or setup timezone preferences in your user account.

Time Position Orientation Groundspeed Altitude Reporting Facility
EDT Latitude Longitude Course Direction KTS MPH feet Rate Location/Type
07:37AM 40.2790 -74.8120 101° East 20 23  Level FlightAware
07:37AM 40.2800 -74.8100 57° Northeast 19 22 120 Level FlightAware
07:37AM 40.2810 -74.8090 37° Northeast 21 24 120 Level FlightAware
07:37AM 40.2820 -74.8070 57° Northeast 13 15 120 Level FlightAware
07:39AM 40.2690 -74.8230 223° Southwest 143 165 300 780 Climbing FlightAware
07:40AM 40.2480 -74.8500 224° Southwest 156 180 1,800 1,560 Climbing FlightAware
07:40AM 40.2320 -74.8710 225° Southwest 214 246 2,000 780 Climbing FlightAware
07:40AM 40.2120 -74.8980 226° Southwest 261 300 2,500 2,520 Climbing FlightAware
07:41AM 40.1910 -74.9260 226° Southwest 253 291 4,200 3,240 Climbing FlightAware
07:41AM 40.1630 -74.9630 225° Southwest 279 321 5,600 2,820 Climbing FlightAware
07:42AM 40.1510 -74.9860 236° Southwest 279 321 6,400 1,860 Climbing FlightAware
07:42AM 40.1350 -75.0270 243° Southwest 281 323 7,000 660 Climbing FlightAware
07:43AM 40.1210 -75.0640 244° Southwest 283 326 7,000 60 Level FlightAware
07:43AM 40.1020 -75.1130 243° Southwest 283 326 7,100 540 Climbing FlightAware
07:43AM 40.0960 -75.1280 242° Southwest 285 328 7,400 2,280 Climbing FlightAware
07:44AM 40.0810 -75.1680 244° Southwest 295 339 8,500 2,460 Climbing FlightAware
07:44AM 40.0610 -75.2210 244° Southwest 301 346 9,800 1,140 Climbing FlightAware
07:45AM 40.0340 -75.2920 244° Southwest 305 351 10,000 120 Climbing FlightAware
07:45AM 40.0160 -75.3390 243° Southwest 306 352 10,000 -120 Level FlightAware
07:46AM 40.0000 -75.3770 241° Southwest 306 352 9,900 -240 Descending FlightAware
07:46AM 39.9750 -75.4070 223° Southwest 305 351 9,800 -120 Descending FlightAware
07:47AM 39.9330 -75.4610 225° Southwest 305 351 9,800  Level FlightAware
07:47AM 39.9230 -75.4980 251° West 302 348 9,800  Level FlightAware
07:48AM 39.9060 -75.5560 249° West 299 344 9,800  Level FlightAware
07:48AM 39.8930 -75.6020 250° West 298 343 9,800 480 Level FlightAware
07:49AM 39.8780 -75.6570 250° West 302 348 10,300 1,860 Climbing FlightAware
07:50AM 39.8560 -75.7360 250° West 315 362 12,200 2,640 Climbing FlightAware
07:50AM 39.8350 -75.8000 247° West 323 372 13,800 2,700 Climbing FlightAware
07:51AM 39.7860 -75.8680 227° Southwest 332 382 15,900 2,340 Climbing FlightAware
07:52AM 39.7410 -75.9280 226° Southwest 346 398 17,300 2,100 Climbing FlightAware
07:52AM 39.6910 -75.9950 226° Southwest 351 404 19,000 1,740 Climbing FlightAware
07:53AM 39.6430 -76.0600 226° Southwest 376 433 19,800 1,320 Climbing FlightAware
07:54AM 39.5920 -76.1270 225° Southwest 396 456 20,800 1,680 Climbing FlightAware
07:54AM 39.5460 -76.1880 226° Southwest 396 456 22,000 1,680 Climbing FlightAware
07:55AM 39.5170 -76.2430 236° Southwest 410 472 22,600 1,560 Climbing FlightAware
07:56AM 39.4800 -76.3440 245° Southwest 420 483 23,900 1,740 Climbing FlightAware
07:56AM 39.4340 -76.4320 236° Southwest 422 486 25,200 1,620 Climbing FlightAware
07:57AM 39.3770 -76.5230 231° Southwest 431 496 26,300 1,440 Climbing FlightAware
07:58AM 39.3230 -76.6080 231° Southwest 439 505 27,300 1,380 Climbing FlightAware
07:58AM 39.2870 -76.6830 238° Southwest 443 510 28,100 1,440 Climbing FlightAware
07:59AM 39.2550 -76.8000 251° West 445 512 29,300 1,440 Climbing FlightAware
08:00AM 39.2280 -76.8990 251° West 450 518 30,200 1,260 Climbing FlightAware
08:00AM 39.1980 -77.0110 251° West 457 526 31,100 1,200 Climbing FlightAware
08:01AM 39.1690 -77.1160 250° West 463 533 31,900 1,260 Climbing FlightAware
08:02AM 39.1430 -77.1850 244° Southwest 461 531 32,600 1,500 Climbing FlightAware
08:02AM 39.0740 -77.2620 221° Southwest 459 528 33,700 1,620 Climbing FlightAware
08:03AM 38.9990 -77.3270 214° Southwest 452 520 34,900 1,500 Climbing FlightAware
08:04AM 38.9230 -77.3920 214° Southwest 450 518 35,900 1,320 Climbing FlightAware
08:04AM 38.8550 -77.4490 213° Southwest 444 511 36,800 1,200 Climbing FlightAware
08:05AM 38.7790 -77.5130 213° Southwest 441 507 37,600 780 Climbing FlightAware
08:06AM 38.7090 -77.5730 214° Southwest 447 514 37,900 240 Climbing FlightAware
08:07AM 38.6350 -77.6350 213° Southwest 445 512 38,000 60 Climbing FlightAware
08:07AM 38.5660 -77.6930 213° Southwest 447 514 38,000  Level FlightAware
08:08AM 38.4970 -77.7510 213° Southwest 446 513 38,000  Level FlightAware
08:09AM 38.4210 -77.8150 213° Southwest 440 506 38,000  Level FlightAware
08:09AM 38.3540 -77.8710 213° Southwest 436 502 38,000  Level FlightAware
08:10AM 38.2950 -77.9200 213° Southwest 434 499 38,000  Level FlightAware
08:11AM 38.2320 -77.9720 213° Southwest 435 501 38,000  Level FlightAware
08:12AM 38.0590 -78.1150 213° Southwest 445 512 38,000  Level FlightAware
08:13AM 37.9570 -78.2070 215° Southwest 451 519 38,100 60 Climbing FlightAware
08:14AM 37.8980 -78.2630 217° Southwest 452 520 38,100  Level FlightAware
08:17AM 37.6250 -78.5230 217° Southwest 453 521 38,100 -60 Level FlightAware
08:19AM 37.4300 -78.7050 217° Southwest 448 516 38,000 -60 Descending FlightAware
08:20AM 37.3480 -78.7830 217° Southwest 449 517 38,000  Level FlightAware
08:20AM 37.2600 -78.8650 217° Southwest 449 517 38,000 60 Level FlightAware
08:21AM 37.1830 -78.9370 217° Southwest 448 516 38,100  Climbing FlightAware
08:22AM 37.1160 -79.0000 217° Southwest 446 513 38,000 -120 Descending FlightAware
08:22AM 37.0480 -79.0620 216° Southwest 445 512 38,000  Level FlightAware
08:23AM 36.9740 -79.1300 216° Southwest 446 513 38,000  Level FlightAware
08:24AM 36.9090 -79.1910 217° Southwest 446 513 38,000  Level FlightAware
08:24AM 36.8350 -79.2590 216° Southwest 448 516 38,000 60 Level FlightAware
08:25AM 36.7680 -79.3210 217° Southwest 448 516 38,100 60 Climbing FlightAware
08:26AM 36.7090 -79.3740 216° Southwest 447 514 38,100 -120 Level FlightAware
08:26AM 36.6350 -79.4420 216° Southwest 447 514 38,000 -120 Descending FlightAware
08:27AM 36.5690 -79.5030 217° Southwest 447 514 38,000  Level FlightAware
08:28AM 36.5080 -79.5590 216° Southwest 447 514 38,000  Level FlightAware
08:28AM 36.4440 -79.6170 216° Southwest 447 514 38,000  Level FlightAware
08:29AM 36.3670 -79.6870 216° Southwest 448 516 38,000  Level FlightAware
08:30AM 36.3110 -79.7370 216° Southwest 449 517 38,000  Level FlightAware
08:31AM 36.2270 -79.8130 216° Southwest 444 511 38,000 60 Level FlightAware
08:31AM 36.1600 -79.8730 216° Southwest 445 512 38,100  Climbing FlightAware
08:32AM 36.0920 -79.9340 216° Southwest 444 511 38,000  Descending FlightAware
08:33AM 35.9460 -80.0260 207° Southwest 432 497 38,100  Climbing FlightAware
08:34AM 35.8770 -80.0610 202° Southwest 438 504 38,000 -120 Descending FlightAware
08:35AM 35.7960 -80.1020 202° Southwest 437 503 38,000  Level FlightAware
08:35AM 35.7340 -80.1340 203° Southwest 437 503 38,000  Level FlightAware
08:36AM 35.6220 -80.1890 202° Southwest 437 503 38,000  Level FlightAware
08:37AM 35.5460 -80.2270 202° Southwest 442 509 38,000  Level FlightAware
08:37AM 35.4720 -80.2650 203° Southwest 442 509 38,000  Level FlightAware
08:38AM 35.3940 -80.3040 202° Southwest 442 509 38,000  Level FlightAware
08:39AM 35.3190 -80.3410 202° Southwest 442 509 38,000  Level FlightAware
08:39AM 35.2310 -80.3840 202° Southwest 443 510 38,000  Level FlightAware
08:40AM 35.1520 -80.4240 202° Southwest 445 512 38,000  Level FlightAware
08:41AM 35.0760 -80.4610 202° Southwest 445 512 38,000 60 Level FlightAware
08:42AM 34.9860 -80.5060 202° Southwest 445 512 38,100 60 Climbing FlightAware
08:42AM 34.9100 -80.5430 202° Southwest 445 512 38,100  Level FlightAware
08:43AM 34.8330 -80.5810 202° Southwest 445 512 38,100 -120 Level FlightAware
08:44AM 34.7500 -80.6220 202° Southwest 443 510 38,000 -120 Descending FlightAware
08:44AM 34.6720 -80.6600 202° Southwest 444 511 38,000  Level FlightAware
08:45AM 34.5870 -80.7010 202° Southwest 445 512 38,000  Level FlightAware
08:46AM 34.5180 -80.7290 198° South 439 505 38,000  Level FlightAware
08:47AM 34.4210 -80.7500 190° South 440 506 38,000  Level FlightAware
08:47AM 34.3430 -80.7660 190° South 445 512 38,000  Level FlightAware
08:48AM 34.2590 -80.7830 189° South 449 517 38,000 60 Level FlightAware
08:49AM 34.1717 -80.7917 189° South 438 504 38,100  Climbing Jacksonville Center
08:50AM 34.0444 -80.8047 185° South 448 516 38,100  Level Jacksonville Center
08:51AM 33.9236 -80.8203 186° South 448 516 38,100 -60 Level Jacksonville Center
08:52AM 33.8028 -80.8331 185° South 448 516 38,000 -60 Descending Jacksonville Center
08:53AM 33.6819 -80.8433 184° South 437 503 38,000  Level Jacksonville Center
08:54AM 33.5633 -80.8561 185° South 437 503 38,000  Level Jacksonville Center
08:55AM 33.4444 -80.8689 185° South 437 503 38,000  Level Jacksonville Center
08:56AM 33.3217 -80.8842 186° South 437 503 38,000  Level Jacksonville Center
08:57AM 33.2050 -80.8942 184° South 442 509 38,000  Level Jacksonville Center
08:58AM 33.0778 -80.9069 185° South 447 514 38,000  Level Jacksonville Center
09:03AM 32.4350 -80.9730 185° South 444 511 38,000  Level FlightAware
09:04AM 32.3450 -80.9820 185° South 448 516 38,100 60 Climbing FlightAware
09:04AM 32.2610 -80.9910 185° South 448 516 38,100  Level FlightAware
09:05AM 32.1710 -81.0000 185° South 448 516 38,100 -120 Level FlightAware
09:06AM 32.0780 -81.0090 185° South 446 513 38,000 -120 Descending FlightAware
09:07AM 31.9880 -81.0190 185° South 444 511 38,000  Level FlightAware
09:07AM 31.8910 -81.0280 185° South 441 507 38,000  Level FlightAware
09:08AM 31.8250 -81.0350 185° South 439 505 38,000  Level FlightAware
09:09AM 31.7260 -81.0450 185° South 435 501 38,000  Level FlightAware
09:10AM 31.6210 -81.0550 185° South 430 495 38,000  Level FlightAware
09:10AM 31.5370 -81.0640 185° South 426 490 38,000  Level FlightAware
09:12AM 31.3780 -81.0780 184° South 426 490 38,000  Level FlightAware
09:12AM 31.3140 -81.0830 184° South 426 490 38,000  Level FlightAware
09:13AM 31.2340 -81.0890 184° South 426 490 38,000  Level FlightAware
09:14AM 31.1720 -81.0940 184° South 426 490 38,000  Level FlightAware
09:15AM 31.0920 -81.1010 184° South 426 490 38,000  Level FlightAware
09:15AM 31.0350 -81.1060 184° South 426 490 38,000  Level FlightAware
09:16AM 30.9550 -81.1120 184° South 426 490 38,000  Level FlightAware
09:16AM 30.8950 -81.1170 184° South 426 490 38,000  Level FlightAware
09:17AM 30.8140 -81.1240 184° South 426 490 38,000  Level FlightAware
09:18AM 30.7540 -81.1290 184° South 426 490 38,000 -2,460 Level FlightAware
09:19AM 30.4850 -81.1480 183° South 434 499 34,000 -2,400 Descending FlightAware
09:20AM 30.4250 -81.1460 178° South 428 493 34,000  Level FlightAware
09:20AM 30.3350 -81.1430 178° South 430 495 34,000  Level FlightAware
09:21AM 30.2410 -81.1400 178° South 433 498 34,000  Level FlightAware
09:22AM 30.1670 -81.1380 179° South 434 499 34,000 -120 Level FlightAware
09:22AM 30.0890 -81.1360 179° South 436 502 33,900 -2,100 Descending FlightAware
09:23AM 29.9840 -81.1330 179° South 443 510 30,900 -2,100 Descending FlightAware
09:24AM 29.9180 -81.1300 178° South 443 510 30,900 -1,800 Level FlightAware
09:25AM 29.9150 -81.1310 196° South 437 503 27,500 -2,820 Descending FlightAware
09:26AM 29.9420 -81.1320 358° North 429 494 24,700 -1,860 Descending FlightAware
09:27AM 29.8810 -81.1310 179° South 429 494 24,700  Level FlightAware
09:27AM 29.8000 -81.1290 179° South 429 494 24,700  Level FlightAware
09:28AM 29.7400 -81.1280 179° South 429 494 24,700  Level FlightAware
09:29AM 29.6790 -81.1270 179° South 429 494 24,700 -4,980 Level FlightAware
09:30AM 29.2542 -81.1100 179° South 393 452 16,500 -4,980 Descending Jacksonville Center
09:31AM 29.1497 -81.1022 176° South 387 445 14,600 -1,920 Descending Jacksonville Center
09:32AM 29.0472 -81.0944 176° South 382 440 12,700 -1,020 Descending Jacksonville Center
09:37AM 28.5830 -81.1760 176° South 8,700 -840 Descending FlightAware
09:37AM 28.5420 -81.1860 192° South 284 327 8,000 -1,200 Descending FlightAware
09:38AM 28.5000 -81.1870 181° South 247 284 7,400 -1,260 Descending FlightAware
09:38AM 28.4750 -81.1870 180° South 239 275 6,800 -1,800 Descending FlightAware
09:39AM 28.4410 -81.1870 180° South 234 269 5,800 -1,800 Descending FlightAware
09:39AM 28.4100 -81.1870 180° South 237 273 5,100 -720 Descending FlightAware
09:40AM 28.3667 -81.1833 180° South 217 250 4,900 -780 Descending Orlando TRACON
09:41AM 28.3000 -81.1833 180° South 206 237 3,800 -960 Descending Orlando TRACON
09:42AM 28.2833 -81.2500 254° West 221 254 2,900 -900 Descending Orlando TRACON
09:43AM 28.3333 -81.2833 330° Northwest 192 221 1,900 -1,020 Descending Orlando TRACON
09:44AM 28.3833 -81.2833 360° North 171 197 1,000 -1,020 Descending Orlando TRACON
09:46AM 28.4167 -81.3000 342° North  Level FlightAware Approximate